CDT,Max TemperatureF,Mean TemperatureF,Min TemperatureF,Max Dew PointF,MeanDew PointF,Min DewpointF,Max Humidity, Mean Humidity, Min Humidity, Max Sea Level PressureIn, Mean Sea Level PressureIn, Min Sea Level PressureIn, Max VisibilityMiles, Mean VisibilityMiles, Min VisibilityMiles, Max Wind SpeedMPH, Mean Wind SpeedMPH, Max Gust SpeedMPH,PrecipitationIn, CloudCover, Events, WindDirDegrees
2013-9-1,88,75,62,70,63,53,97,66,34,29.92,29.83,29.74,10,9,5,22,11,29,0.00,2,,315
2013-9-2,81,69,57,58,54,49,93,64,35,30.03,29.99,29.93,10,10,10,16,9,21,0.00,0,,346
2013-9-3,80,63,45,54,49,45,100,68,35,30.12,30.07,30.02,10,7,0,10,2,23,0.00,1,Fog,348
2013-9-4,90,73,55,65,57,51,93,64,34,30.14,30.10,30.06,10,10,10,10,3,14,0.00,0,,207
2013-9-5,92,76,60,66,62,58,90,63,36,30.17,30.13,30.09,10,10,10,8,3,9,0.00,1,,164
2013-9-6,89,76,62,64,59,57,87,61,34,30.14,30.06,29.97,10,10,10,15,6,18,0.00,0,,171
2013-9-7,96,81,65,70,64,58,84,62,39,29.97,29.90,29.82,10,10,10,16,8,21,T,0,,204
2013-9-8,90,79,68,71,70,67,97,77,56,29.93,29.86,29.83,10,8,4,17,8,22,0.00,1,,82
2013-9-9,98,85,72,71,65,60,93,62,30,29.88,29.82,29.78,10,10,6,21,9,26,0.00,0,,206
2013-9-10,96,82,67,65,61,59,81,56,30,29.99,29.95,29.89,10,10,10,22,11,33,0.00,0,,209
2013-9-11,82,77,71,71,67,63,90,74,58,30.08,30.04,30.00,10,10,10,13,5,17,0.05,3,Rain,256
2013-9-12,82,68,54,69,53,42,97,62,26,30.15,30.10,30.04,10,10,10,25,11,31,0.00,1,,333
2013-9-13,74,62,49,48,43,38,86,57,27,30.24,30.16,30.12,10,10,10,13,7,17,0.00,0,,43
2013-9-14,76,59,42,47,43,39,89,60,31,30.16,30.07,29.96,10,10,10,16,8,21,0.00,0,,161
2013-9-15,70,62,53,63,56,46,93,75,56,30.22,30.01,29.89,10,9,2,17,9,21,0.13,6,Rain,293
2013-9-16,63,57,51,54,52,49,100,84,67,30.36,30.30,30.23,10,9,5,16,7,22,0.00,5,,63
2013-9-17,64,58,52,62,56,49,100,89,78,30.27,30.14,30.04,10,8,3,15,9,20,0.05,7,Rain,133
2013-9-18,89,77,64,67,64,62,93,72,50,30.04,29.92,29.78,10,6,2,22,13,29,0.00,4,,179
2013-9-19,91,78,65,68,65,61,100,73,46,29.88,29.82,29.69,10,9,2,43,11,53,0.45,3,Rain-Thunderstorm,221
2013-9-20,71,62,52,65,55,48,100,74,47,29.96,29.91,29.85,10,9,2,21,12,26,0.00,4,,296
2013-9-21,71,58,45,48,44,41,93,65,37,30.02,29.97,29.92,10,10,9,16,7,24,0.00,0,,320
2013-9-22,76,60,44,50,47,43,93,66,38,30.02,29.96,29.91,10,10,10,13,6,16,0.00,0,,137
2013-9-23,77,62,47,51,48,45,93,65,36,30.00,29.94,29.89,10,10,10,20,10,26,0.00,0,,134
2013-9-24,78,64,49,56,52,46,93,68,43,29.91,29.87,29.83,10,10,10,20,10,26,0.00,1,,98
2013-9-25,80,67,53,57,54,50,89,67,45,29.94,29.89,29.86,10,9,5,15,8,20,0.00,1,,81
2013-9-26,85,69,52,61,57,50,93,67,40,29.96,29.93,29.90,10,10,7,21,10,26,0.00,0,,135
2013-9-27,84,74,63,63,59,57,84,64,43,30.03,29.96,29.92,10,10,8,23,13,30,0.00,0,,159
2013-9-28,69,58,47,66,57,46,100,83,66,30.06,29.94,29.86,10,6,0,21,10,28,0.39,5,Fog-Rain,224
2013-9-29,72,57,41,51,45,41,100,68,35,30.10,30.04,29.97,10,6,0,12,5,16,0.00,0,Fog,205
2013-9-30,77,61,44,59,50,44,93,65,36,29.95,29.88,29.81,10,10,10,18,10,24,0.00,0,,183